createdAt,value
2018-05-10T00:00:38.091Z,6.16
2018-05-10T00:06:33.214Z,6.46
2018-05-10T00:12:28.101Z,11.82
2018-05-10T00:18:23.127Z,40.95
2018-05-10T00:24:18.201Z,70.98
2018-05-10T00:30:13.121Z,19.47
2018-05-10T00:36:08.083Z,19.84
2018-05-10T00:42:03.108Z,43.89
2018-05-10T00:47:58.111Z,47.21
2018-05-10T00:53:53.120Z,38.72
2018-05-10T00:59:48.175Z,49.19
2018-05-10T01:05:43.140Z,44.23
2018-05-10T01:11:38.130Z,32.86
2018-05-10T01:17:33.121Z,28.04
2018-05-10T01:23:28.120Z,33.51
2018-05-10T01:29:23.107Z,36.5
2018-05-10T01:35:18.157Z,37.63
2018-05-10T01:41:13.118Z,42.88
2018-05-10T01:47:08.145Z,43.04
2018-05-10T01:53:03.121Z,28.99
2018-05-10T01:58:58.109Z,17.42
2018-05-10T02:04:53.140Z,19.77
2018-05-10T02:10:48.107Z,23.36
2018-05-10T02:16:43.135Z,29.17
2018-05-10T02:22:38.167Z,20.69
2018-05-10T02:28:33.117Z,25.94
2018-05-10T02:34:28.142Z,37.96
2018-05-10T02:40:23.183Z,41.02
2018-05-10T02:46:18.147Z,30.54
2018-05-10T02:52:13.118Z,31.23
2018-05-10T02:58:08.151Z,29.98
2018-05-10T03:04:03.125Z,22.67
2018-05-10T03:09:58.161Z,32.12
2018-05-10T03:15:53.195Z,23.4
2018-05-10T03:21:48.144Z,24.04
2018-05-10T03:27:43.235Z,24.17
2018-05-10T03:33:38.175Z,14.15
2018-05-10T03:39:33.143Z,13.42
2018-05-10T03:45:28.230Z,17.79
2018-05-10T03:51:23.157Z,14.71
2018-05-10T03:57:18.181Z,24.17
2018-05-10T04:03:13.133Z,38.27
2018-05-10T04:09:08.205Z,26.9
2018-05-10T04:15:03.227Z,25.66
2018-05-10T04:20:58.274Z,20.7
2018-05-10T04:26:53.253Z,11.98
2018-05-10T04:32:48.165Z,11.53
2018-05-10T04:38:43.184Z,11.36
2018-05-10T04:44:38.176Z,11.46
2018-05-10T04:50:33.201Z,12.61
2018-05-10T04:56:28.214Z,13.73
2018-05-10T05:02:23.160Z,13.42
2018-05-10T05:08:18.191Z,14.28
2018-05-10T05:14:13.174Z,14.32
2018-05-10T05:20:08.177Z,13.36
2018-05-10T05:26:03.176Z,14.63
2018-05-10T05:31:58.196Z,14.13
2018-05-10T05:37:53.176Z,14.98
2018-05-10T05:43:48.182Z,15.13
2018-05-10T05:49:43.179Z,16.3
2018-05-10T05:55:38.181Z,15.48
2018-05-10T06:01:33.169Z,15.03
2018-05-10T06:07:28.197Z,14.85
2018-05-10T06:13:23.188Z,15.83
2018-05-10T06:19:18.244Z,15.26
2018-05-10T06:25:13.262Z,13.04
2018-05-10T06:31:08.228Z,14.85
2018-05-10T06:37:03.187Z,16.36
2018-05-10T06:42:58.228Z,17.48
2018-05-10T06:48:53.192Z,17.9
2018-05-10T06:54:48.204Z,18.24
2018-05-10T07:00:43.267Z,19.14
2018-05-10T07:06:38.223Z,17.5
2018-05-10T07:12:33.184Z,17.52
2018-05-10T07:18:28.198Z,19.57
2018-05-10T07:24:23.182Z,19.02
2018-05-10T07:30:18.296Z,19
2018-05-10T07:36:13.245Z,19.17
2018-05-10T07:42:08.347Z,18.07
2018-05-10T07:48:03.261Z,19
2018-05-10T07:53:58.204Z,18.69
2018-05-10T07:59:53.204Z,21.15
2018-05-10T08:05:48.203Z,19.97
2018-05-10T08:11:43.237Z,18.8
2018-05-10T08:17:38.286Z,19.42
2018-05-10T08:23:33.281Z,16.91
2018-05-10T08:29:28.230Z,16.07
2018-05-10T08:35:23.222Z,17.04
2018-05-10T08:41:18.188Z,15.21
2018-05-10T08:47:13.187Z,16.23
2018-05-10T08:53:08.234Z,15.9
2018-05-10T08:59:03.293Z,15.37
2018-05-10T09:04:58.208Z,15.22
2018-05-10T09:10:53.224Z,15.27
2018-05-10T09:16:48.868Z,13.67
2018-05-10T09:22:43.230Z,14.15
2018-05-10T09:28:38.303Z,13.27
2018-05-10T09:34:33.232Z,13.74
2018-05-10T09:40:28.256Z,13.1
2018-05-10T09:46:23.201Z,12.25
2018-05-10T09:52:18.226Z,9.98
2018-05-10T09:58:13.203Z,9.33
2018-05-10T10:04:08.206Z,8.22
2018-05-10T10:10:03.274Z,8.18
2018-05-10T10:15:58.240Z,8.15
2018-05-10T10:21:53.307Z,7.09
2018-05-10T10:27:48.242Z,6
2018-05-10T10:33:43.247Z,6.88
2018-05-10T10:39:38.261Z,6.8
2018-05-10T10:45:33.350Z,7.9
2018-05-10T10:51:28.275Z,6.75
2018-05-10T10:57:23.261Z,6.49
2018-05-10T11:03:18.231Z,6.38
2018-05-10T11:09:13.314Z,6.91
2018-05-10T11:15:08.295Z,6.79
2018-05-10T11:21:03.305Z,6.81
2018-05-10T11:26:58.269Z,6.57
2018-05-10T11:32:53.361Z,5.73
2018-05-10T11:38:48.322Z,6.06
2018-05-10T11:44:43.345Z,5.95
2018-05-10T11:50:38.299Z,5.43
2018-05-10T11:56:33.256Z,4.65
2018-05-10T12:02:28.300Z,5.69
2018-05-10T12:08:23.292Z,5.8
2018-05-10T12:14:18.302Z,5.2
2018-05-10T12:20:13.288Z,4.76
2018-05-10T12:26:08.400Z,4.21
2018-05-10T12:32:03.281Z,3.97
2018-05-10T12:37:58.341Z,4.39
2018-05-10T12:43:53.289Z,4.14
2018-05-10T12:49:48.270Z,3.74
2018-05-10T12:55:43.320Z,4.34
2018-05-10T13:01:38.332Z,3.54
2018-05-10T13:07:33.315Z,3.88
2018-05-10T13:13:28.315Z,3.48
2018-05-10T13:19:23.418Z,4.23
2018-05-10T13:25:18.323Z,3.99
2018-05-10T13:31:13.321Z,4.18
2018-05-10T13:37:08.332Z,3.63
2018-05-10T13:43:03.323Z,3.57
2018-05-10T13:48:58.325Z,3.76
2018-05-10T13:54:53.339Z,3.09
2018-05-10T14:00:48.328Z,3.38
2018-05-10T14:06:43.326Z,3.23
2018-05-10T14:12:38.357Z,3.27
2018-05-10T14:18:33.400Z,3.71
2018-05-10T14:24:28.379Z,4.11
2018-05-10T14:30:23.400Z,3.22
2018-05-10T14:36:18.343Z,4.2
2018-05-10T14:42:13.375Z,3.86
2018-05-10T14:48:08.347Z,4.11
2018-05-10T14:54:03.331Z,4.34
2018-05-10T14:59:58.376Z,3.96
2018-05-10T15:05:53.370Z,4.3
2018-05-10T15:11:48.413Z,4.17
2018-05-10T15:17:43.357Z,3.97
2018-05-10T15:23:38.374Z,4.13
2018-05-10T15:29:33.422Z,4.43
2018-05-10T15:35:28.339Z,3.79
2018-05-10T15:41:23.399Z,3.82
2018-05-10T15:47:18.337Z,3.66
2018-05-10T15:53:13.453Z,3.52
2018-05-10T15:59:08.380Z,3.47
2018-05-10T16:05:03.418Z,3.26
2018-05-10T16:10:58.375Z,3.64
2018-05-10T16:16:53.350Z,2.87
2018-05-10T16:22:48.355Z,2.47
2018-05-10T16:28:43.386Z,3.08
2018-05-10T16:34:38.357Z,2.62
2018-05-10T16:40:33.401Z,2.72
2018-05-10T16:46:28.362Z,2.49
2018-05-10T16:52:23.428Z,2.59
2018-05-10T16:58:18.365Z,2.7
2018-05-10T17:04:13.413Z,2.72
2018-05-10T17:10:08.434Z,2.87
2018-05-10T17:16:03.423Z,3.25
2018-05-10T17:21:58.417Z,2.94
2018-05-10T17:27:53.457Z,3.27
2018-05-10T17:33:48.385Z,2.85
2018-05-10T17:39:43.465Z,3.46
2018-05-10T17:45:38.386Z,3.51
2018-05-10T17:51:33.416Z,3.58
2018-05-10T17:57:28.424Z,3.69
2018-05-10T18:03:23.422Z,3.28
2018-05-10T18:09:18.383Z,4.22
2018-05-10T18:15:13.378Z,4.68
2018-05-10T18:21:08.406Z,11.88
2018-05-10T18:27:03.443Z,5.9
2018-05-10T18:32:58.424Z,6.47
2018-05-10T18:38:53.403Z,7.7
2018-05-10T18:44:48.621Z,7.83
2018-05-10T18:50:43.407Z,4.58
2018-05-10T18:56:38.407Z,4.07
2018-05-10T19:02:33.427Z,4.7
2018-05-10T19:08:28.400Z,4.47
2018-05-10T19:14:23.466Z,3.95
2018-05-10T19:20:18.414Z,4.33
2018-05-10T19:26:13.445Z,4.55
2018-05-10T19:32:08.428Z,5.03
2018-05-10T19:38:03.425Z,4.8
2018-05-10T19:43:58.410Z,5.07
2018-05-10T19:49:53.400Z,5.19
2018-05-10T19:55:48.448Z,5.21
2018-05-10T20:01:43.416Z,4.93
2018-05-10T20:07:38.438Z,4.49
2018-05-10T20:13:33.439Z,4.74
2018-05-10T20:19:28.447Z,4.92
2018-05-10T20:25:23.561Z,4.69
2018-05-10T20:31:18.402Z,5.19
2018-05-10T20:37:13.451Z,4.31
2018-05-10T20:43:08.515Z,5.1
2018-05-10T20:49:03.424Z,4.68
2018-05-10T20:54:58.438Z,5.34
2018-05-10T21:00:53.445Z,4.9
2018-05-10T21:06:48.502Z,5.09
2018-05-10T21:12:43.421Z,6.16
2018-05-10T21:18:38.441Z,5.35
2018-05-10T21:24:33.437Z,4.71
2018-05-10T21:30:28.449Z,5.26
2018-05-10T21:36:23.416Z,4.61
2018-05-10T21:42:18.492Z,4.94
2018-05-10T21:48:13.471Z,5.35
2018-05-10T21:54:08.469Z,5.26
2018-05-10T22:00:03.415Z,5.06
2018-05-10T22:05:58.468Z,5.65
2018-05-10T22:11:53.459Z,5.79
2018-05-10T22:17:48.427Z,5.67
2018-05-10T22:23:43.488Z,6.06
2018-05-10T22:29:38.426Z,5.4
2018-05-10T22:35:33.593Z,5
2018-05-10T22:41:28.532Z,5.7
2018-05-10T22:47:23.470Z,5.61
2018-05-10T22:53:18.434Z,5.77
2018-05-10T22:59:13.461Z,5.51
2018-05-10T23:05:08.471Z,5.72
2018-05-10T23:11:03.486Z,5.48
2018-05-10T23:16:58.516Z,5.49
2018-05-10T23:22:53.472Z,5.5
2018-05-10T23:28:48.441Z,6.01
2018-05-10T23:34:43.482Z,5.67
2018-05-10T23:40:38.460Z,5.13
2018-05-10T23:46:33.492Z,6.13
2018-05-10T23:52:28.443Z,6.1
2018-05-10T23:58:23.465Z,6.26
